sensor_id;sensor_type;location;lat;lon;timestamp;temperature;humidity
63277;DHT22;49403;51.046;13.780;2023-05-10T00:00:04;16.20;46.70
63277;DHT22;49403;51.046;13.780;2023-05-10T00:00:35;17.10;47.60
63277;DHT22;49403;51.046;13.780;2023-05-10T00:01:06;15.70;46.50
63277;DHT22;49403;51.046;13.780;2023-05-10T00:01:38;15.70;46.50
63277;DHT22;49403;51.046;13.780;2023-05-10T00:02:09;15.70;46.50
63277;DHT22;49403;51.046;13.780;2023-05-10T00:02:40;15.70;46.40
63277;DHT22;49403;51.046;13.780;2023-05-10T00:03:12;15.80;46.50
63277;DHT22;49403;51.046;13.780;2023-05-10T00:03:43;15.70;46.40
63277;DHT22;49403;51.046;13.780;2023-05-10T00:04:14;15.70;46.50
63277;DHT22;49403;51.046;13.780;2023-05-10T00:04:45;15.70;46.40
63277;DHT22;49403;51.046;13.780;2023-05-10T00:05:17;15.80;46.50
63277;DHT22;49403;51.046;13.780;2023-05-10T00:05:48;15.70;46.40
63277;DHT22;49403;51.046;13.780;2023-05-10T00:06:19;15.70;46.40
63277;DHT22;49403;51.046;13.780;2023-05-10T00:06:50;15.70;46.60
63277;DHT22;49403;51.046;13.780;2023-05-10T00:07:21;15.70;46.60
63277;DHT22;49403;51.046;13.780;2023-05-10T00:07:53;15.70;46.40
63277;DHT22;49403;51.046;13.780;2023-05-10T00:08:24;15.70;46.50
63277;DHT22;49403;51.046;13.780;2023-05-10T00:08:55;15.70;46.50
63277;DHT22;49403;51.046;13.780;2023-05-10T00:09:26;16.50;47.10
63277;DHT22;49403;51.046;13.780;2023-05-10T00:09:58;15.70;46.50
63277;DHT22;49403;51.046;13.780;2023-05-10T00:10:29;15.70;46.50
63277;DHT22;49403;51.046;13.780;2023-05-10T00:11:00;15.80;46.50
63277;DHT22;49403;51.046;13.780;2023-05-10T00:11:31;15.70;46.50
63277;DHT22;49403;51.046;13.780;2023-05-10T00:12:03;15.70;46.40
63277;DHT22;49403;51.046;13.780;2023-05-10T00:12:34;15.70;46.50
63277;DHT22;49403;51.046;13.780;2023-05-10T00:13:05;15.70;46.50
63277;DHT22;49403;51.046;13.780;2023-05-10T00:13:36;15.70;46.50
63277;DHT22;49403;51.046;13.780;2023-05-10T00:14:07;15.70;46.50
63277;DHT22;49403;51.046;13.780;2023-05-10T00:14:39;15.70;46.60
63277;DHT22;49403;51.046;13.780;2023-05-10T00:15:10;15.60;46.50
63277;DHT22;49403;51.046;13.780;2023-05-10T00:15:42;15.70;46.60
63277;DHT22;49403;51.046;13.780;2023-05-10T00:16:13;15.70;46.60
63277;DHT22;49403;51.046;13.780;2023-05-10T00:16:44;15.60;46.70
63277;DHT22;49403;51.046;13.780;2023-05-10T00:17:16;15.60;46.50
63277;DHT22;49403;51.046;13.780;2023-05-10T00:17:47;15.70;46.60
63277;DHT22;49403;51.046;13.780;2023-05-10T00:18:18;15.60;46.80
63277;DHT22;49403;51.046;13.780;2023-05-10T00:18:49;15.60;46.60
63277;DHT22;49403;51.046;13.780;2023-05-10T00:19:20;15.60;46.60
63277;DHT22;49403;51.046;13.780;2023-05-10T00:19:52;16.40;47.30
63277;DHT22;49403;51.046;13.780;2023-05-10T00:20:23;15.60;46.60
63277;DHT22;49403;51.046;13.780;2023-05-10T00:20:54;15.60;46.50
63277;DHT22;49403;51.046;13.780;2023-05-10T00:21:25;15.60;46.50
63277;DHT22;49403;51.046;13.780;2023-05-10T00:21:58;15.60;46.50
63277;DHT22;49403;51.046;13.780;2023-05-10T00:22:30;15.60;46.80
63277;DHT22;49403;51.046;13.780;2023-05-10T00:23:01;15.60;46.60
63277;DHT22;49403;51.046;13.780;2023-05-10T00:23:32;15.60;46.60
63277;DHT22;49403;51.046;13.780;2023-05-10T00:24:04;15.60;46.70
63277;DHT22;49403;51.046;13.780;2023-05-10T00:24:35;15.60;46.70
63277;DHT22;49403;51.046;13.780;2023-05-10T00:25:07;15.50;46.60
63277;DHT22;49403;51.046;13.780;2023-05-10T00:25:39;15.70;46.60
63277;DHT22;49403;51.046;13.780;2023-05-10T00:26:10;17.30;48.20
63277;DHT22;49403;51.046;13.780;2023-05-10T00:26:42;15.60;46.80
63277;DHT22;49403;51.046;13.780;2023-05-10T00:27:13;15.50;46.80
63277;DHT22;49403;51.046;13.780;2023-05-10T00:27:44;15.50;46.70
63277;DHT22;49403;51.046;13.780;2023-05-10T00:28:15;15.60;46.80
63277;DHT22;49403;51.046;13.780;2023-05-10T00:28:46;15.30;46.80
63277;DHT22;49403;51.046;13.780;2023-05-10T00:29:18;15.50;46.90
63277;DHT22;49403;51.046;13.780;2023-05-10T00:29:50;15.50;46.10
63277;DHT22;49403;51.046;13.780;2023-05-10T00:30:21;15.50;46.60
63277;DHT22;49403;51.046;13.780;2023-05-10T00:30:52;15.50;46.60
63277;DHT22;49403;51.046;13.780;2023-05-10T00:31:24;15.50;46.60
63277;DHT22;49403;51.046;13.780;2023-05-10T00:31:55;15.50;46.60
63277;DHT22;49403;51.046;13.780;2023-05-10T00:32:27;15.50;46.70
63277;DHT22;49403;51.046;13.780;2023-05-10T00:32:58;15.50;46.60
63277;DHT22;49403;51.046;13.780;2023-05-10T00:33:29;15.50;46.60
63277;DHT22;49403;51.046;13.780;2023-05-10T00:34:00;15.50;46.70
63277;DHT22;49403;51.046;13.780;2023-05-10T00:34:32;15.30;46.40
63277;DHT22;49403;51.046;13.780;2023-05-10T00:35:03;15.40;46.50
63277;DHT22;49403;51.046;13.780;2023-05-10T00:35:35;15.50;46.60
63277;DHT22;49403;51.046;13.780;2023-05-10T00:36:07;15.50;46.60
63277;DHT22;49403;51.046;13.780;2023-05-10T00:36:38;15.40;46.40
63277;DHT22;49403;51.046;13.780;2023-05-10T00:37:09;15.50;46.60
63277;DHT22;49403;51.046;13.780;2023-05-10T00:37:41;16.20;47.30
63277;DHT22;49403;51.046;13.780;2023-05-10T00:38:12;15.50;46.70
63277;DHT22;49403;51.046;13.780;2023-05-10T00:38:43;15.50;46.70
63277;DHT22;49403;51.046;13.780;2023-05-10T00:39:14;14.50;45.80
63277;DHT22;49403;51.046;13.780;2023-05-10T00:39:45;15.40;46.60
63277;DHT22;49403;51.046;13.780;2023-05-10T00:40:17;15.50;46.80
63277;DHT22;49403;51.046;13.780;2023-05-10T00:40:48;15.50;46.70
63277;DHT22;49403;51.046;13.780;2023-05-10T00:41:20;15.40;46.70
63277;DHT22;49403;51.046;13.780;2023-05-10T00:41:53;15.40;46.60
63277;DHT22;49403;51.046;13.780;2023-05-10T00:42:24;15.40;46.80
63277;DHT22;49403;51.046;13.780;2023-05-10T00:42:56;15.40;46.70
63277;DHT22;49403;51.046;13.780;2023-05-10T00:43:31;15.40;46.70
63277;DHT22;49403;51.046;13.780;2023-05-10T00:44:02;16.60;47.70
63277;DHT22;49403;51.046;13.780;2023-05-10T00:44:36;15.40;46.80
63277;DHT22;49403;51.046;13.780;2023-05-10T00:45:07;15.40;46.70
63277;DHT22;49403;51.046;13.780;2023-05-10T00:45:40;15.40;47.30
63277;DHT22;49403;51.046;13.780;2023-05-10T00:46:12;15.40;46.70
63277;DHT22;49403;51.046;13.780;2023-05-10T00:46:45;16.90;47.90
63277;DHT22;49403;51.046;13.780;2023-05-10T00:47:17;15.40;46.70
63277;DHT22;49403;51.046;13.780;2023-05-10T00:47:48;15.60;47.00
63277;DHT22;49403;51.046;13.780;2023-05-10T00:48:19;15.70;47.10
63277;DHT22;49403;51.046;13.780;2023-05-10T00:48:52;15.30;46.60
63277;DHT22;49403;51.046;13.780;2023-05-10T00:49:23;15.30;46.80
63277;DHT22;49403;51.046;13.780;2023-05-10T00:49:54;15.30;47.30
63277;DHT22;49403;51.046;13.780;2023-05-10T00:50:26;15.30;46.80
63277;DHT22;49403;51.046;13.780;2023-05-10T00:51:32;15.30;46.30
63277;DHT22;49403;51.046;13.780;2023-05-10T00:52:03;15.60;47.10
63277;DHT22;49403;51.046;13.780;2023-05-10T00:52:35;15.30;46.80
63277;DHT22;49403;51.046;13.780;2023-05-10T00:53:08;15.30;46.70
63277;DHT22;49403;51.046;13.780;2023-05-10T00:53:41;15.30;46.80
63277;DHT22;49403;51.046;13.780;2023-05-10T00:54:14;15.30;46.80
63277;DHT22;49403;51.046;13.780;2023-05-10T00:54:46;15.30;46.80
63277;DHT22;49403;51.046;13.780;2023-05-10T00:55:18;16.50;47.90
63277;DHT22;49403;51.046;13.780;2023-05-10T00:55:49;15.30;46.90
63277;DHT22;49403;51.046;13.780;2023-05-10T00:56:21;15.20;46.80
63277;DHT22;49403;51.046;13.780;2023-05-10T00:56:53;15.30;46.90
63277;DHT22;49403;51.046;13.780;2023-05-10T00:57:28;15.20;46.70
63277;DHT22;49403;51.046;13.780;2023-05-10T00:57:59;15.20;46.80
63277;DHT22;49403;51.046;13.780;2023-05-10T00:58:31;15.20;46.80
63277;DHT22;49403;51.046;13.780;2023-05-10T00:59:05;15.30;46.90
63277;DHT22;49403;51.046;13.780;2023-05-10T00:59:36;15.20;46.90
63277;DHT22;49403;51.046;13.780;2023-05-10T01:00:11;15.20;46.80
63277;DHT22;49403;51.046;13.780;2023-05-10T01:00:43;15.20;46.90
63277;DHT22;49403;51.046;13.780;2023-05-10T01:01:17;15.20;46.90
63277;DHT22;49403;51.046;13.780;2023-05-10T01:01:49;15.20;47.00
63277;DHT22;49403;51.046;13.780;2023-05-10T01:02:22;15.10;46.80
63277;DHT22;49403;51.046;13.780;2023-05-10T01:02:54;15.20;47.00
63277;DHT22;49403;51.046;13.780;2023-05-10T01:04:02;15.10;46.30
63277;DHT22;49403;51.046;13.780;2023-05-10T01:04:36;15.10;47.00
63277;DHT22;49403;51.046;13.780;2023-05-10T01:05:12;15.00;46.90
63277;DHT22;49403;51.046;13.780;2023-05-10T01:05:43;15.10;47.00
63277;DHT22;49403;51.046;13.780;2023-05-10T01:06:17;15.10;47.10
63277;DHT22;49403;51.046;13.780;2023-05-10T01:06:52;15.00;46.90
63277;DHT22;49403;51.046;13.780;2023-05-10T01:07:24;16.20;48.00
63277;DHT22;49403;51.046;13.780;2023-05-10T01:08:01;15.00;47.00
63277;DHT22;49403;51.046;13.780;2023-05-10T01:08:33;15.10;47.10
63277;DHT22;49403;51.046;13.780;2023-05-10T01:09:07;15.00;46.90
63277;DHT22;49403;51.046;13.780;2023-05-10T01:09:42;15.10;47.10
63277;DHT22;49403;51.046;13.780;2023-05-10T01:10:17;15.10;47.10
63277;DHT22;49403;51.046;13.780;2023-05-10T01:10:51;15.00;47.00
63277;DHT22;49403;51.046;13.780;2023-05-10T01:11:25;15.10;47.10
63277;DHT22;49403;51.046;13.780;2023-05-10T01:12:00;14.90;46.90
63277;DHT22;49403;51.046;13.780;2023-05-10T01:12:38;15.00;47.10
63277;DHT22;49403;51.046;13.780;2023-05-10T01:13:25;15.00;47.00
63277;DHT22;49403;51.046;13.780;2023-05-10T01:14:00;15.00;47.00
63277;DHT22;49403;51.046;13.780;2023-05-10T01:14:35;15.00;47.10
63277;DHT22;49403;51.046;13.780;2023-05-10T01:15:15;15.00;47.10
63277;DHT22;49403;51.046;13.780;2023-05-10T01:15:50;15.00;47.10
63277;DHT22;49403;51.046;13.780;2023-05-10T01:16:25;15.00;47.20
63277;DHT22;49403;51.046;13.780;2023-05-10T01:17:00;15.00;47.10
63277;DHT22;49403;51.046;13.780;2023-05-10T01:17:42;15.00;47.20
63277;DHT22;49403;51.046;13.780;2023-05-10T01:18:20;15.00;47.00
63277;DHT22;49403;51.046;13.780;2023-05-10T01:18:52;15.00;47.20
63277;DHT22;49403;51.046;13.780;2023-05-10T01:19:28;15.00;47.20
63277;DHT22;49403;51.046;13.780;2023-05-10T01:20:09;14.50;46.80
63277;DHT22;49403;51.046;13.780;2023-05-10T01:20:49;15.00;47.20
63277;DHT22;49403;51.046;13.780;2023-05-10T01:21:33;14.00;46.30
63277;DHT22;49403;51.046;13.780;2023-05-10T01:22:38;15.00;47.20
63277;DHT22;49403;51.046;13.780;2023-05-10T01:25:07;14.90;47.40
63277;DHT22;49403;51.046;13.780;2023-05-10T01:26:14;14.90;47.30
63277;DHT22;49403;51.046;13.780;2023-05-10T01:28:06;14.80;47.40
63277;DHT22;49403;51.046;13.780;2023-05-10T01:28:56;14.80;47.50
63277;DHT22;49403;51.046;13.780;2023-05-10T01:31:51;16.40;49.50
63277;DHT22;49403;51.046;13.780;2023-05-10T01:32:35;14.60;48.00
63277;DHT22;49403;51.046;13.780;2023-05-10T01:33:39;14.60;48.10
63277;DHT22;49403;51.046;13.780;2023-05-10T01:34:25;14.50;47.90
63277;DHT22;49403;51.046;13.780;2023-05-10T01:35:17;14.60;48.10
63277;DHT22;49403;51.046;13.780;2023-05-10T01:36:03;14.60;48.00
63277;DHT22;49403;51.046;13.780;2023-05-10T01:37:06;14.60;48.10
63277;DHT22;49403;51.046;13.780;2023-05-10T01:37:50;14.50;48.10
63277;DHT22;49403;51.046;13.780;2023-05-10T01:38:50;15.40;48.90
63277;DHT22;49403;51.046;13.780;2023-05-10T01:39:32;14.50;48.20
63277;DHT22;49403;51.046;13.780;2023-05-10T01:42:05;14.50;48.70
63277;DHT22;49403;51.046;13.780;2023-05-10T01:42:51;15.20;49.00
63277;DHT22;49403;51.046;13.780;2023-05-10T01:43:37;14.40;48.60
63277;DHT22;49403;51.046;13.780;2023-05-10T01:44:24;14.50;48.70
63277;DHT22;49403;51.046;13.780;2023-05-10T01:45:16;14.50;48.60
63277;DHT22;49403;51.046;13.780;2023-05-10T01:46:05;14.40;48.50
63277;DHT22;49403;51.046;13.780;2023-05-10T01:46:41;14.40;48.60
63277;DHT22;49403;51.046;13.780;2023-05-10T01:48:10;14.40;49.00
63277;DHT22;49403;51.046;13.780;2023-05-10T01:48:48;14.40;48.70
63277;DHT22;49403;51.046;13.780;2023-05-10T01:49:26;14.40;48.90
63277;DHT22;49403;51.046;13.780;2023-05-10T01:50:09;14.40;49.00
63277;DHT22;49403;51.046;13.780;2023-05-10T01:50:48;15.90;50.20
63277;DHT22;49403;51.046;13.780;2023-05-10T01:51:27;14.50;49.00
63277;DHT22;49403;51.046;13.780;2023-05-10T01:52:12;14.40;49.00
63277;DHT22;49403;51.046;13.780;2023-05-10T01:52:55;14.40;49.00
63277;DHT22;49403;51.046;13.780;2023-05-10T01:53:28;14.40;48.90
63277;DHT22;49403;51.046;13.780;2023-05-10T01:54:03;14.20;48.50
63277;DHT22;49403;51.046;13.780;2023-05-10T01:54:41;14.40;48.90
63277;DHT22;49403;51.046;13.780;2023-05-10T01:55:15;14.40;48.90
63277;DHT22;49403;51.046;13.780;2023-05-10T01:55:52;14.40;48.90
63277;DHT22;49403;51.046;13.780;2023-05-10T01:56:29;14.40;48.90
63277;DHT22;49403;51.046;13.780;2023-05-10T01:57:06;14.40;48.90
63277;DHT22;49403;51.046;13.780;2023-05-10T01:57:44;14.40;48.90
63277;DHT22;49403;51.046;13.780;2023-05-10T01:58:32;14.40;48.90
63277;DHT22;49403;51.046;13.780;2023-05-10T01:59:08;15.30;49.80
63277;DHT22;49403;51.046;13.780;2023-05-10T01:59:50;14.40;49.10
63277;DHT22;49403;51.046;13.780;2023-05-10T02:00:23;14.40;49.10
63277;DHT22;49403;51.046;13.780;2023-05-10T02:01:01;14.40;49.10
63277;DHT22;49403;51.046;13.780;2023-05-10T02:01:36;14.30;49.00
63277;DHT22;49403;51.046;13.780;2023-05-10T02:02:12;14.40;49.10
63277;DHT22;49403;51.046;13.780;2023-05-10T02:02:47;14.30;49.00
63277;DHT22;49403;51.046;13.780;2023-05-10T02:03:23;14.40;49.20
63277;DHT22;49403;51.046;13.780;2023-05-10T02:03:56;14.40;49.10
63277;DHT22;49403;51.046;13.780;2023-05-10T02:04:31;14.40;49.20
63277;DHT22;49403;51.046;13.780;2023-05-10T02:05:05;14.40;49.10
63277;DHT22;49403;51.046;13.780;2023-05-10T02:05:38;14.40;49.10
63277;DHT22;49403;51.046;13.780;2023-05-10T02:06:14;14.30;49.10
63277;DHT22;49403;51.046;13.780;2023-05-10T02:06:50;14.40;49.20
63277;DHT22;49403;51.046;13.780;2023-05-10T02:07:27;14.30;49.20
63277;DHT22;49403;51.046;13.780;2023-05-10T02:08:06;14.20;49.10
63277;DHT22;49403;51.046;13.780;2023-05-10T02:08:41;14.30;49.30
63277;DHT22;49403;51.046;13.780;2023-05-10T02:09:18;14.30;49.20
63277;DHT22;49403;51.046;13.780;2023-05-10T02:09:53;14.30;49.30
63277;DHT22;49403;51.046;13.780;2023-05-10T02:10:33;14.30;49.30
63277;DHT22;49403;51.046;13.780;2023-05-10T02:11:11;13.50;48.60
63277;DHT22;49403;51.046;13.780;2023-05-10T02:11:47;15.60;50.40
63277;DHT22;49403;51.046;13.780;2023-05-10T02:12:23;14.30;49.40
63277;DHT22;49403;51.046;13.780;2023-05-10T02:13:06;14.30;49.40
63277;DHT22;49403;51.046;13.780;2023-05-10T02:13:48;14.30;49.30
63277;DHT22;49403;51.046;13.780;2023-05-10T02:14:34;14.30;49.50
63277;DHT22;49403;51.046;13.780;2023-05-10T02:15:10;14.20;49.20
63277;DHT22;49403;51.046;13.780;2023-05-10T02:15:43;14.30;49.50
63277;DHT22;49403;51.046;13.780;2023-05-10T02:16:24;14.30;49.50
63277;DHT22;49403;51.046;13.780;2023-05-10T02:17:07;14.30;49.30
63277;DHT22;49403;51.046;13.780;2023-05-10T02:17:43;14.30;49.50
63277;DHT22;49403;51.046;13.780;2023-05-10T02:18:25;14.20;49.50
63277;DHT22;49403;51.046;13.780;2023-05-10T02:19:05;14.20;49.50
63277;DHT22;49403;51.046;13.780;2023-05-10T02:19:42;14.20;49.60
63277;DHT22;49403;51.046;13.780;2023-05-10T02:20:20;13.50;49.00
63277;DHT22;49403;51.046;13.780;2023-05-10T02:20:56;14.20;49.70
63277;DHT22;49403;51.046;13.780;2023-05-10T02:21:32;14.20;49.80
63277;DHT22;49403;51.046;13.780;2023-05-10T02:22:08;14.20;49.80
63277;DHT22;49403;51.046;13.780;2023-05-10T02:22:52;15.30;50.80
63277;DHT22;49403;51.046;13.780;2023-05-10T02:23:31;14.20;49.70
63277;DHT22;49403;51.046;13.780;2023-05-10T02:24:10;14.20;49.80
63277;DHT22;49403;51.046;13.780;2023-05-10T02:24:46;14.20;49.70
63277;DHT22;49403;51.046;13.780;2023-05-10T02:25:23;14.10;49.70
63277;DHT22;49403;51.046;13.780;2023-05-10T02:25:59;14.10;49.80
63277;DHT22;49403;51.046;13.780;2023-05-10T02:26:39;14.20;50.00
63277;DHT22;49403;51.046;13.780;2023-05-10T02:27:20;14.10;49.80
63277;DHT22;49403;51.046;13.780;2023-05-10T02:28:01;14.20;50.00
63277;DHT22;49403;51.046;13.780;2023-05-10T02:28:36;14.20;50.10
63277;DHT22;49403;51.046;13.780;2023-05-10T02:29:09;14.10;50.10
63277;DHT22;49403;51.046;13.780;2023-05-10T02:29:44;14.10;50.10
63277;DHT22;49403;51.046;13.780;2023-05-10T02:30:18;14.10;50.10
63277;DHT22;49403;51.046;13.780;2023-05-10T02:30:54;14.10;50.10
63277;DHT22;49403;51.046;13.780;2023-05-10T02:31:32;14.10;50.10
63277;DHT22;49403;51.046;13.780;2023-05-10T02:32:10;14.20;50.20
63277;DHT22;49403;51.046;13.780;2023-05-10T02:32:49;14.10;50.10
63277;DHT22;49403;51.046;13.780;2023-05-10T02:33:30;14.10;50.20
63277;DHT22;49403;51.046;13.780;2023-05-10T02:34:06;14.10;50.20
63277;DHT22;49403;51.046;13.780;2023-05-10T02:34:52;14.10;50.40
63277;DHT22;49403;51.046;13.780;2023-05-10T02:35:30;14.20;50.40
63277;DHT22;49403;51.046;13.780;2023-05-10T02:36:14;14.00;50.30
63277;DHT22;49403;51.046;13.780;2023-05-10T02:36:46;14.10;50.40
63277;DHT22;49403;51.046;13.780;2023-05-10T02:37:22;14.00;50.40
63277;DHT22;49403;51.046;13.780;2023-05-10T02:37:58;14.10;50.40
63277;DHT22;49403;51.046;13.780;2023-05-10T02:38:34;14.10;50.40
63277;DHT22;49403;51.046;13.780;2023-05-10T02:39:11;14.10;50.30
63277;DHT22;49403;51.046;13.780;2023-05-10T02:39:53;14.10;50.40
63277;DHT22;49403;51.046;13.780;2023-05-10T02:40:32;14.10;50.50
63277;DHT22;49403;51.046;13.780;2023-05-10T02:41:17;14.10;50.50
63277;DHT22;49403;51.046;13.780;2023-05-10T02:41:53;14.10;50.50
63277;DHT22;49403;51.046;13.780;2023-05-10T02:42:28;14.10;50.60
63277;DHT22;49403;51.046;13.780;2023-05-10T02:43:14;14.00;50.60
63277;DHT22;49403;51.046;13.780;2023-05-10T02:43:51;14.00;50.50
63277;DHT22;49403;51.046;13.780;2023-05-10T02:44:31;14.00;50.60
63277;DHT22;49403;51.046;13.780;2023-05-10T02:45:22;13.00;49.70
63277;DHT22;49403;51.046;13.780;2023-05-10T02:45:57;14.00;50.60
63277;DHT22;49403;51.046;13.780;2023-05-10T02:46:35;14.00;50.70
63277;DHT22;49403;51.046;13.780;2023-05-10T02:47:12;14.00;50.70
63277;DHT22;49403;51.046;13.780;2023-05-10T02:47:46;14.00;50.80
63277;DHT22;49403;51.046;13.780;2023-05-10T02:48:20;14.00;50.80
63277;DHT22;49403;51.046;13.780;2023-05-10T02:48:52;12.80;49.70
63277;DHT22;49403;51.046;13.780;2023-05-10T02:49:31;14.00;50.80
63277;DHT22;49403;51.046;13.780;2023-05-10T02:50:12;14.00;50.80
63277;DHT22;49403;51.046;13.780;2023-05-10T02:50:47;14.00;50.90
63277;DHT22;49403;51.046;13.780;2023-05-10T02:51:28;14.00;50.90
63277;DHT22;49403;51.046;13.780;2023-05-10T02:52:07;14.20;51.10
63277;DHT22;49403;51.046;13.780;2023-05-10T02:52:47;14.00;50.80
63277;DHT22;49403;51.046;13.780;2023-05-10T02:53:31;13.90;50.90
63277;DHT22;49403;51.046;13.780;2023-05-10T02:54:15;14.00;51.00
63277;DHT22;49403;51.046;13.780;2023-05-10T02:54:55;14.00;51.10
63277;DHT22;49403;51.046;13.780;2023-05-10T02:55:32;13.90;51.00
63277;DHT22;49403;51.046;13.780;2023-05-10T02:56:15;13.90;51.10
63277;DHT22;49403;51.046;13.780;2023-05-10T02:57:00;14.00;51.00
63277;DHT22;49403;51.046;13.780;2023-05-10T02:57:35;13.90;51.10
63277;DHT22;49403;51.046;13.780;2023-05-10T02:58:15;13.90;51.10
63277;DHT22;49403;51.046;13.780;2023-05-10T02:58:50;13.90;51.10
63277;DHT22;49403;51.046;13.780;2023-05-10T02:59:25;13.90;51.20
63277;DHT22;49403;51.046;13.780;2023-05-10T02:59:56;13.90;51.20
63277;DHT22;49403;51.046;13.780;2023-05-10T03:00:29;13.90;51.30
63277;DHT22;49403;51.046;13.780;2023-05-10T03:01:01;13.90;51.20
63277;DHT22;49403;51.046;13.780;2023-05-10T03:01:35;13.90;51.30
63277;DHT22;49403;51.046;13.780;2023-05-10T03:02:11;13.90;51.30
63277;DHT22;49403;51.046;13.780;2023-05-10T03:02:43;13.90;51.30
63277;DHT22;49403;51.046;13.780;2023-05-10T03:03:14;13.50;51.00
63277;DHT22;49403;51.046;13.780;2023-05-10T03:03:46;13.90;51.40
63277;DHT22;49403;51.046;13.780;2023-05-10T03:04:19;13.90;51.40
63277;DHT22;49403;51.046;13.780;2023-05-10T03:04:51;13.90;51.50
63277;DHT22;49403;51.046;13.780;2023-05-10T03:05:23;14.40;51.90
63277;DHT22;49403;51.046;13.780;2023-05-10T03:05:57;13.90;51.50
63277;DHT22;49403;51.046;13.780;2023-05-10T03:06:29;14.00;51.60
63277;DHT22;49403;51.046;13.780;2023-05-10T03:07:01;13.90;51.50
63277;DHT22;49403;51.046;13.780;2023-05-10T03:07:33;13.90;51.40
63277;DHT22;49403;51.046;13.780;2023-05-10T03:08:05;13.90;51.50
63277;DHT22;49403;51.046;13.780;2023-05-10T03:08:37;13.90;51.50
63277;DHT22;49403;51.046;13.780;2023-05-10T03:09:09;13.90;52.10
63277;DHT22;49403;51.046;13.780;2023-05-10T03:09:43;13.90;51.50
63277;DHT22;49403;51.046;13.780;2023-05-10T03:10:16;13.90;51.50
63277;DHT22;49403;51.046;13.780;2023-05-10T03:11:01;13.80;51.50
63277;DHT22;49403;51.046;13.780;2023-05-10T03:12:07;13.90;51.60
63277;DHT22;49403;51.046;13.780;2023-05-10T03:12:52;13.90;51.40
63277;DHT22;49403;51.046;13.780;2023-05-10T03:13:54;13.90;51.60
63277;DHT22;49403;51.046;13.780;2023-05-10T03:14:34;13.90;51.70
63277;DHT22;49403;51.046;13.780;2023-05-10T03:15:37;13.90;51.60
63277;DHT22;49403;51.046;13.780;2023-05-10T03:16:22;13.80;51.70
63277;DHT22;49403;51.046;13.780;2023-05-10T03:17:06;13.80;51.90
63277;DHT22;49403;51.046;13.780;2023-05-10T03:17:55;15.40;53.10
63277;DHT22;49403;51.046;13.780;2023-05-10T03:19:01;13.70;51.90
63277;DHT22;49403;51.046;13.780;2023-05-10T03:19:46;13.80;51.80
63277;DHT22;49403;51.046;13.780;2023-05-10T03:20:43;13.80;51.90
63277;DHT22;49403;51.046;13.780;2023-05-10T03:21:24;14.20;52.30
63277;DHT22;49403;51.046;13.780;2023-05-10T03:22:04;12.90;51.50
63277;DHT22;49403;51.046;13.780;2023-05-10T03:22:53;11.90;50.80
63277;DHT22;49403;51.046;13.780;2023-05-10T03:23:41;13.70;53.10
63277;DHT22;49403;51.046;13.780;2023-05-10T03:24:27;13.70;52.20
63277;DHT22;49403;51.046;13.780;2023-05-10T03:25:08;13.40;52.20
63277;DHT22;49403;51.046;13.780;2023-05-10T03:25:48;13.70;52.60
63277;DHT22;49403;51.046;13.780;2023-05-10T03:26:25;13.70;53.20
63277;DHT22;49403;51.046;13.780;2023-05-10T03:27:06;13.70;52.60
63277;DHT22;49403;51.046;13.780;2023-05-10T03:27:45;13.70;52.40
63277;DHT22;49403;51.046;13.780;2023-05-10T03:28:24;13.70;52.60
63277;DHT22;49403;51.046;13.780;2023-05-10T03:29:02;12.70;51.80
63277;DHT22;49403;51.046;13.780;2023-05-10T03:29:43;13.70;52.60
63277;DHT22;49403;51.046;13.780;2023-05-10T03:30:18;13.70;53.20
63277;DHT22;49403;51.046;13.780;2023-05-10T03:30:55;13.70;52.60
63277;DHT22;49403;51.046;13.780;2023-05-10T03:31:30;13.70;52.60
63277;DHT22;49403;51.046;13.780;2023-05-10T03:32:04;13.70;52.70
63277;DHT22;49403;51.046;13.780;2023-05-10T03:32:42;13.70;52.70
63277;DHT22;49403;51.046;13.780;2023-05-10T03:33:16;13.70;52.70
63277;DHT22;49403;51.046;13.780;2023-05-10T03:33:54;13.70;52.70
63277;DHT22;49403;51.046;13.780;2023-05-10T03:34:33;13.70;52.70
63277;DHT22;49403;51.046;13.780;2023-05-10T03:35:11;13.70;52.60
63277;DHT22;49403;51.046;13.780;2023-05-10T03:35:49;13.80;52.40
63277;DHT22;49403;51.046;13.780;2023-05-10T03:36:23;13.70;52.30
63277;DHT22;49403;51.046;13.780;2023-05-10T03:36:56;13.80;52.80
63277;DHT22;49403;51.046;13.780;2023-05-10T03:37:35;13.80;52.60
63277;DHT22;49403;51.046;13.780;2023-05-10T03:38:12;13.80;52.60
63277;DHT22;49403;51.046;13.780;2023-05-10T03:38:43;13.80;52.50
63277;DHT22;49403;51.046;13.780;2023-05-10T03:39:18;13.80;52.50
63277;DHT22;49403;51.046;13.780;2023-05-10T03:39:52;13.80;52.50
63277;DHT22;49403;51.046;13.780;2023-05-10T03:40:30;13.80;52.30
63277;DHT22;49403;51.046;13.780;2023-05-10T03:41:04;13.80;52.40
63277;DHT22;49403;51.046;13.780;2023-05-10T03:41:41;13.80;52.50
63277;DHT22;49403;51.046;13.780;2023-05-10T03:42:14;13.80;52.40
63277;DHT22;49403;51.046;13.780;2023-05-10T03:42:49;13.80;52.40
63277;DHT22;49403;51.046;13.780;2023-05-10T03:43:20;13.80;52.40
63277;DHT22;49403;51.046;13.780;2023-05-10T03:43:54;13.90;52.50
63277;DHT22;49403;51.046;13.780;2023-05-10T03:44:31;13.90;52.40
63277;DHT22;49403;51.046;13.780;2023-05-10T03:45:06;13.90;53.10
63277;DHT22;49403;51.046;13.780;2023-05-10T03:45:41;13.90;52.30
63277;DHT22;49403;51.046;13.780;2023-05-10T03:46:15;13.90;52.50
63277;DHT22;49403;51.046;13.780;2023-05-10T03:46:49;13.90;52.50
63277;DHT22;49403;51.046;13.780;2023-05-10T03:47:23;13.90;52.50
63277;DHT22;49403;51.046;13.780;2023-05-10T03:48:02;13.90;52.50
63277;DHT22;49403;51.046;13.780;2023-05-10T03:48:34;13.80;52.20
63277;DHT22;49403;51.046;13.780;2023-05-10T03:49:08;13.90;52.50
63277;DHT22;49403;51.046;13.780;2023-05-10T03:49:49;13.90;52.50
63277;DHT22;49403;51.046;13.780;2023-05-10T03:50:23;13.80;52.30
63277;DHT22;49403;51.046;13.780;2023-05-10T03:50:58;14.10;52.40
63277;DHT22;49403;51.046;13.780;2023-05-10T03:51:30;13.90;52.50
63277;DHT22;49403;51.046;13.780;2023-05-10T03:52:01;13.90;52.70
63277;DHT22;49403;51.046;13.780;2023-05-10T03:52:38;13.80;52.50
63277;DHT22;49403;51.046;13.780;2023-05-10T03:53:16;13.90;52.50
63277;DHT22;49403;51.046;13.780;2023-05-10T03:53:50;13.80;52.40
63277;DHT22;49403;51.046;13.780;2023-05-10T03:54:27;13.90;52.60
63277;DHT22;49403;51.046;13.780;2023-05-10T03:54:59;13.80;52.50
63277;DHT22;49403;51.046;13.780;2023-05-10T03:55:33;13.80;52.60